KLM B773 at Paramaribo on Mar 6th 2023, damaged a number of tyres on landing

Last Update: March 6, 2023 / 21:31:08 GMT/Zulu time

Bookmark this article
Incident Facts

Date of incident
Mar 6, 2023

Classification
Incident

Airline
KLM

Flight number
KL-713

Aircraft Registration
PH-BVC

Aircraft Type
Boeing 777-300

ICAO Type Designator
B773

Airport ICAO Code
SMJP

A KLM Boeing 777-300, registration PH-BVC performing flight KL-713 from Amsterdam (Netherlands) to Paramaribo (Suriname), landed on Paramaribo*s runway 11 but damaged a number of tyres, vacated the runway and became disabled on the "loop" taxiway while turning around to backtrack the runway. The passengers disembarked onto the runway and were bussed to the terminal.

The aircraft is still on the ground in Paramaribo about 4 hours after landing.

Metars:
SMJP 061900Z 04013KT 9999 -SHRA SCT006 FEW015CB SCT020 27/25 Q1010 NOSIG=
SMJP 061800Z 07005KT 9999 -SHRA SCT008 FEW015CB BKN018 25/24 Q1010 RESHRA NOSIG=
SMJP 061712Z 05015KT 1500 +SHRA SCT007 SCT012CB BKN015 25/22 Q1011 BECMG FM1733 5000 SHRA=
COR SMJP 061700Z 01007KT 3000 SHRA SCT008 FEW012CB BKN018 31/23 Q1010 TEMPO 2000 +SHRA=
SMJP 061600Z 02009KT 9999 SCT012 FEW015CB 30/24 Q1012 NOSIG=
SMJP 061500Z 04006KT 8000 -SHRA SCT008 FEW015CB BKN018 30/25 Q1012 TEMPO 5000 SHRA=
SMJP 061400Z 05011KT 8000 -SHRA SCT010 FEW018CB 27/25 Q1013 NOSIG=
Aircraft Registration Data
Registration mark
PH-BVC
Country of Registration
Netherlands
Date of Registration
MqkjcAnbmbem Subscribe to unlock
Airworthyness Category
Legal Basis
Manufacturer
The Boeing Company
Aircraft Model / Type
777-300ER
ICAO Aircraft Type
B77W
Year of Manufacture
Serial Number
Aircraft Address / Mode S Code (HEX)
Maximum Take off Mass (MTOM) [kg]
Engine Count
Engine
Kdhjmcnfdbpicn j dcdd m jqdjj Subscribe to unlock
Engine Type
Incident Facts

Date of incident
Mar 6, 2023

Classification
Incident

Airline
KLM

Flight number
KL-713

Aircraft Registration
PH-BVC

Aircraft Type
Boeing 777-300

ICAO Type Designator
B773

Airport ICAO Code
SMJP

This article is published under license from Avherald.com. © of text by Avherald.com.
Article source

You can read 2 more free articles without a subscription.

Subscribe now and continue reading without any limits!

Are you a subscriber? Login
Subscribe

Read unlimited articles and receive our daily update briefing. Gain better insights into what is happening in commercial aviation safety.

Send tip

Support AeroInside by sending a small tip amount.

Related articles

Newest articles

Subscribe today

Are you researching aviation incidents? Get access to AeroInside Insights, unlimited read access and receive the daily newsletter.

Pick your plan and subscribe

Partner

Blockaviation logo

A new way to document and demonstrate airworthiness compliance and aircraft value. Find out more.

ELITE Logo

ELITE Simulation Solutions is a leading global provider of Flight Simulation Training Devices, IFR training software as well as flight controls and related services. Find out more.

Blue Altitude Logo

Your regulation partner, specialists in aviation safety and compliance; providing training, auditing, and consultancy services. Find out more.

AeroInside Blog
Popular aircraft
Airbus A320
Boeing 737-800
Boeing 737-800 MAX
Popular airlines
American Airlines
United
Delta
Air Canada
Lufthansa
British Airways